createdAt,value
2017-11-01T00:00:18.319Z,0
2017-11-01T00:00:59.230Z,0
2017-11-01T00:01:39.732Z,0
2017-11-01T00:02:20.749Z,0
2017-11-01T00:03:01.353Z,0
2017-11-01T00:03:41.996Z,0
2017-11-01T00:04:23.149Z,0
2017-11-01T00:05:03.520Z,0
2017-11-01T00:05:44.966Z,0
2017-11-01T00:06:26.715Z,0
2017-11-01T00:07:07.596Z,0
2017-11-01T00:07:47.288Z,0
2017-11-01T00:08:27.796Z,0
2017-11-01T00:09:08.976Z,0
2017-11-01T00:09:51.212Z,0
2017-11-01T00:10:34.342Z,0
2017-11-01T00:11:16.508Z,0
2017-11-01T00:12:00.277Z,0
2017-11-01T00:12:41.657Z,0
2017-11-01T00:13:24.200Z,0
2017-11-01T00:14:05.414Z,0
2017-11-01T00:14:46.160Z,0
2017-11-01T00:15:26.848Z,0
2017-11-01T00:16:08.171Z,0
2017-11-01T00:16:48.410Z,0
2017-11-01T00:17:29.048Z,0
2017-11-01T00:18:10.159Z,0
2017-11-01T00:18:50.393Z,0
2017-11-01T00:19:31.575Z,0
2017-11-01T00:20:12.663Z,0
2017-11-01T00:20:53.685Z,0
2017-11-01T00:21:33.757Z,0
2017-11-01T00:22:14.176Z,0
2017-11-01T00:22:54.768Z,0
2017-11-01T00:25:35.637Z,0
2017-11-01T00:26:28.907Z,0
2017-11-01T00:27:21.492Z,0
2017-11-01T00:28:13.709Z,0
2017-11-01T00:29:06.016Z,0
2017-11-01T00:29:59.141Z,0
2017-11-01T00:30:52.311Z,0
2017-11-01T00:31:44.588Z,0
2017-11-01T00:32:37.079Z,0
2017-11-01T00:33:28.952Z,0
2017-11-01T00:34:21.857Z,0
2017-11-01T00:35:13.947Z,0
2017-11-01T00:36:06.125Z,0
2017-11-01T00:36:58.512Z,0
2017-11-01T00:37:51.761Z,0
2017-11-01T00:38:44.033Z,0
2017-11-01T00:39:38.988Z,0
2017-11-01T00:40:32.155Z,0
2017-11-01T00:41:25.796Z,0
2017-11-01T00:42:19.551Z,0
2017-11-01T00:43:12.604Z,0
2017-11-01T00:44:04.977Z,0
2017-11-01T00:44:59.343Z,0
2017-11-01T00:45:54.472Z,0
2017-11-01T00:46:47.418Z,0
2017-11-01T00:47:39.906Z,0
2017-11-01T00:48:31.803Z,0
2017-11-01T00:49:25.707Z,0
2017-11-01T00:50:20.099Z,0
2017-11-01T00:51:14.845Z,0
2017-11-01T00:52:07.099Z,0
2017-11-01T00:53:00.089Z,0
2017-11-01T00:53:54.614Z,0
2017-11-01T00:54:46.932Z,0
2017-11-01T00:55:40.280Z,0
2017-11-01T00:56:32.494Z,0
2017-11-01T00:57:24.898Z,0
2017-11-01T00:58:20.342Z,0
2017-11-01T00:59:12.486Z,0
2017-11-01T01:00:06.454Z,0
2017-11-01T01:00:59.670Z,0
2017-11-01T01:01:52.093Z,0
2017-11-01T01:02:45.169Z,0
2017-11-01T01:03:39.078Z,0
2017-11-01T01:04:31.495Z,0
2017-11-01T01:05:23.951Z,0
2017-11-01T01:06:16.915Z,0
2017-11-01T01:07:06.837Z,0
2017-11-01T01:09:32.578Z,0
2017-11-01T01:10:25.838Z,0
2017-11-01T01:11:19.287Z,0
2017-11-01T01:12:12.189Z,0
2017-11-01T01:13:04.793Z,0
2017-11-01T01:13:58.192Z,0
2017-11-01T01:14:52.081Z,0
2017-11-01T01:15:45.573Z,0
2017-11-01T01:16:39.000Z,0
2017-11-01T01:17:31.830Z,0
2017-11-01T01:18:24.317Z,0
2017-11-01T01:19:16.876Z,0
2017-11-01T01:20:09.875Z,0
2017-11-01T01:22:39.674Z,0
2017-11-01T01:23:32.053Z,0
2017-11-01T01:24:24.715Z,0
2017-11-01T01:25:16.630Z,0
2017-11-01T01:26:10.109Z,0
2017-11-01T01:27:02.087Z,0
2017-11-01T01:27:55.071Z,0
2017-11-01T01:28:48.150Z,0
2017-11-01T01:29:40.849Z,0
2017-11-01T01:30:32.882Z,0
2017-11-01T01:31:26.007Z,0
2017-11-01T01:32:18.558Z,0
2017-11-01T01:33:11.265Z,0
2017-11-01T01:34:04.016Z,0
2017-11-01T01:34:56.731Z,0
2017-11-01T01:35:47.593Z,0
2017-11-01T01:36:39.645Z,0
2017-11-01T01:37:32.033Z,0
2017-11-01T01:38:24.519Z,0
2017-11-01T01:39:16.853Z,0
2017-11-01T01:40:09.177Z,0
2017-11-01T01:41:00.681Z,0
2017-11-01T01:41:41.161Z,0
2017-11-01T01:42:21.617Z,0
2017-11-01T01:43:02.069Z,0
2017-11-01T01:43:43.022Z,0
2017-11-01T01:44:22.902Z,0
2017-11-01T01:45:03.291Z,0
2017-11-01T01:45:43.670Z,0
2017-11-01T01:46:24.173Z,0
2017-11-01T01:47:04.576Z,0
2017-11-01T01:47:45.005Z,0
2017-11-01T01:48:25.497Z,0
2017-11-01T01:49:05.876Z,0
2017-11-01T01:49:46.412Z,0
2017-11-01T01:50:27.496Z,0
2017-11-01T01:51:07.792Z,0
2017-11-01T01:51:49.398Z,0
2017-11-01T01:52:29.782Z,0
2017-11-01T01:53:10.158Z,0
2017-11-01T01:53:50.674Z,0
2017-11-01T01:54:31.012Z,0
2017-11-01T01:55:11.484Z,0
2017-11-01T01:55:51.872Z,0
2017-11-01T01:56:32.308Z,0
2017-11-01T01:57:21.593Z,0
2017-11-01T01:58:01.982Z,0
2017-11-01T01:58:42.442Z,0
2017-11-01T01:59:27.436Z,0
2017-11-01T02:00:07.913Z,0
2017-11-01T02:00:48.535Z,0
2017-11-01T02:01:28.949Z,0
2017-11-01T02:02:09.432Z,0
2017-11-01T02:02:49.795Z,0
2017-11-01T02:03:30.338Z,0
2017-11-01T02:04:11.393Z,0
2017-11-01T02:04:51.909Z,0
2017-11-01T02:05:32.240Z,0
2017-11-01T02:06:13.399Z,0
2017-11-01T02:06:55.518Z,0
2017-11-01T02:07:35.934Z,0
2017-11-01T02:08:16.336Z,0
2017-11-01T02:08:56.848Z,0
2017-11-01T02:09:37.985Z,0
2017-11-01T02:10:18.057Z,0
2017-11-01T02:10:58.484Z,0
2017-11-01T02:11:38.903Z,0
2017-11-01T02:12:19.383Z,0
2017-11-01T02:13:00.222Z,0
2017-11-01T02:13:42.861Z,0
2017-11-01T02:14:23.563Z,0
2017-11-01T02:15:03.891Z,0
2017-11-01T02:15:44.356Z,0
2017-11-01T02:16:24.866Z,0
2017-11-01T02:17:05.310Z,0
2017-11-01T02:17:45.754Z,0
2017-11-01T02:18:26.213Z,0
2017-11-01T02:19:06.617Z,0
2017-11-01T02:19:47.009Z,0
2017-11-01T02:20:27.419Z,0
2017-11-01T02:21:07.860Z,0
2017-11-01T02:21:48.397Z,0
2017-11-01T02:22:28.709Z,0
2017-11-01T02:23:09.061Z,0
2017-11-01T02:23:50.050Z,0
2017-11-01T02:24:30.506Z,0
2017-11-01T02:25:11.066Z,0
2017-11-01T02:25:51.593Z,0
2017-11-01T02:26:32.034Z,0
2017-11-01T02:27:12.677Z,0
2017-11-01T02:27:53.032Z,0
2017-11-01T02:28:33.937Z,0
2017-11-01T02:29:14.333Z,0
2017-11-01T02:29:54.693Z,0
2017-11-01T02:30:35.179Z,0
2017-11-01T02:31:15.593Z,0
2017-11-01T02:31:56.231Z,0
2017-11-01T02:32:36.541Z,0
2017-11-01T02:33:16.958Z,0
2017-11-01T02:33:57.500Z,0
2017-11-01T02:34:37.726Z,0
2017-11-01T02:35:18.225Z,0
2017-11-01T02:35:58.541Z,0
2017-11-01T02:36:39.098Z,0
2017-11-01T02:37:23.410Z,0
2017-11-01T02:38:03.883Z,0
2017-11-01T02:38:44.284Z,0
2017-11-01T02:39:24.687Z,0
2017-11-01T02:40:05.124Z,0
2017-11-01T02:40:45.592Z,0
2017-11-01T02:41:26.038Z,0
2017-11-01T02:42:07.223Z,0
2017-11-01T02:42:47.689Z,0
2017-11-01T02:43:28.067Z,0
2017-11-01T02:44:08.465Z,0
2017-11-01T02:44:48.872Z,0
2017-11-01T02:45:29.445Z,0
2017-11-01T02:46:09.865Z,0
2017-11-01T02:46:50.195Z,0
2017-11-01T02:47:30.785Z,0
2017-11-01T02:48:12.192Z,0
2017-11-01T02:48:52.592Z,0
2017-11-01T02:49:33.212Z,0
2017-11-01T02:50:13.790Z,0
2017-11-01T02:50:54.127Z,0
2017-11-01T02:51:34.800Z,0
2017-11-01T02:52:15.084Z,0
2017-11-01T02:52:55.634Z,0
2017-11-01T02:53:36.094Z,0
2017-11-01T02:54:18.905Z,0
2017-11-01T02:54:59.566Z,0
2017-11-01T02:55:40.156Z,0
2017-11-01T02:56:20.966Z,0
2017-11-01T02:57:01.325Z,0
2017-11-01T02:57:41.742Z,0
2017-11-01T02:58:22.151Z,0
2017-11-01T02:59:02.617Z,0
2017-11-01T02:59:43.010Z,0
2017-11-01T03:00:23.604Z,0
2017-11-01T03:01:04.110Z,0
2017-11-01T03:01:44.394Z,0
2017-11-01T03:02:24.823Z,0
2017-11-01T03:04:46.965Z,0
2017-11-01T03:05:27.363Z,0
2017-11-01T03:06:07.843Z,0
2017-11-01T03:06:48.311Z,0
2017-11-01T03:07:28.701Z,0
2017-11-01T03:08:09.234Z,0
2017-11-01T03:08:49.662Z,0
2017-11-01T03:09:30.067Z,0
2017-11-01T03:10:10.492Z,0
2017-11-01T03:10:50.905Z,0
2017-11-01T03:11:31.347Z,0
2017-11-01T03:12:11.819Z,0
2017-11-01T03:12:52.201Z,0
2017-11-01T03:13:32.656Z,0
2017-11-01T03:14:13.070Z,0
2017-11-01T03:14:53.470Z,0
2017-11-01T03:15:34.169Z,0
2017-11-01T03:16:14.627Z,0
2017-11-01T03:16:55.116Z,0
2017-11-01T03:17:35.531Z,0
2017-11-01T03:18:15.972Z,0
2017-11-01T03:18:56.517Z,0
2017-11-01T03:19:37.037Z,0
2017-11-01T03:20:17.501Z,0
2017-11-01T03:20:57.957Z,0
2017-11-01T03:21:38.342Z,0
2017-11-01T03:22:18.784Z,0
2017-11-01T03:22:59.324Z,0
2017-11-01T03:23:39.609Z,0
2017-11-01T03:24:20.029Z,0
2017-11-01T03:25:00.459Z,0
2017-11-01T03:25:40.905Z,0
2017-11-01T03:26:21.255Z,0
2017-11-01T03:27:01.699Z,0
2017-11-01T03:27:42.172Z,0
2017-11-01T03:28:22.614Z,0
2017-11-01T03:29:03.182Z,0
2017-11-01T03:29:43.728Z,0
2017-11-01T03:30:24.272Z,0
2017-11-01T03:31:04.809Z,0
2017-11-01T03:31:46.187Z,0
2017-11-01T03:32:26.634Z,0
2017-11-01T03:33:07.035Z,0
2017-11-01T03:33:47.567Z,0
2017-11-01T03:34:28.004Z,0
2017-11-01T03:35:08.594Z,0
2017-11-01T03:35:49.002Z,0
2017-11-01T03:36:29.625Z,0
2017-11-01T03:37:10.110Z,0
2017-11-01T03:37:50.500Z,0
2017-11-01T03:38:31.064Z,0
2017-11-01T03:39:11.505Z,0
2017-11-01T03:39:51.884Z,0
2017-11-01T03:40:32.297Z,0
2017-11-01T03:41:12.687Z,0
2017-11-01T03:41:53.130Z,0
2017-11-01T03:42:33.641Z,0
2017-11-01T03:43:14.071Z,0
2017-11-01T03:43:54.478Z,0
2017-11-01T03:44:34.902Z,0
2017-11-01T03:45:15.368Z,0
2017-11-01T03:45:55.833Z,0
2017-11-01T03:46:36.265Z,0
2017-11-01T03:47:16.677Z,0
2017-11-01T03:47:57.197Z,0
2017-11-01T03:48:37.696Z,0
2017-11-01T03:49:18.215Z,0
2017-11-01T03:49:58.677Z,0
2017-11-01T03:50:39.073Z,0
2017-11-01T03:51:19.492Z,0
2017-11-01T03:51:59.954Z,0
2017-11-01T03:52:40.346Z,0
2017-11-01T03:53:20.837Z,0
2017-11-01T03:54:01.280Z,0
2017-11-01T03:54:41.713Z,0
2017-11-01T03:55:22.157Z,0
2017-11-01T03:56:02.692Z,0
2017-11-01T03:56:43.051Z,0
2017-11-01T03:57:23.597Z,0
2017-11-01T03:58:04.186Z,0
2017-11-01T03:58:44.529Z,0
2017-11-01T03:59:24.865Z,0
2017-11-01T04:00:05.269Z,0
2017-11-01T04:00:45.682Z,0
2017-11-01T04:01:26.356Z,0
2017-11-01T04:41:46.705Z,0
2017-11-01T04:42:40.258Z,0
2017-11-01T04:43:32.726Z,0
2017-11-01T04:44:25.193Z,0
2017-11-01T04:45:18.431Z,0
2017-11-01T04:46:10.737Z,0
2017-11-01T04:47:03.808Z,0
2017-11-01T04:47:57.297Z,0
2017-11-01T04:48:50.074Z,0
2017-11-01T04:49:42.733Z,0
2017-11-01T04:50:35.760Z,0
2017-11-01T04:51:28.112Z,0
2017-11-01T04:52:21.587Z,0
2017-11-01T04:53:14.928Z,0
2017-11-01T04:54:07.216Z,0
2017-11-01T04:54:59.628Z,0
2017-11-01T04:55:52.852Z,0
2017-11-01T04:56:45.514Z,0
2017-11-01T04:57:37.690Z,0
2017-11-01T04:58:30.066Z,0
2017-11-01T04:59:22.021Z,0
2017-11-01T05:00:14.627Z,0
2017-11-01T05:01:07.204Z,0
2017-11-01T05:02:00.646Z,0
2017-11-01T05:02:52.882Z,0
2017-11-01T05:03:45.193Z,0
2017-11-01T05:04:38.510Z,0
2017-11-01T05:05:32.336Z,0
2017-11-01T05:06:24.148Z,0
2017-11-01T05:07:16.941Z,0
2017-11-01T05:08:10.174Z,0
2017-11-01T05:09:02.346Z,0
2017-11-01T05:09:54.796Z,0
2017-11-01T05:10:46.964Z,0
2017-11-01T05:11:40.788Z,0
2017-11-01T05:12:32.931Z,0
2017-11-01T05:13:25.269Z,0
2017-11-01T05:14:19.384Z,0
2017-11-01T05:15:13.154Z,0
2017-11-01T05:16:05.743Z,0
2017-11-01T05:16:58.926Z,0
2017-11-01T05:17:52.904Z,0
2017-11-01T05:18:45.271Z,0
2017-11-01T05:19:37.787Z,0
2017-11-01T05:20:30.272Z,0
2017-11-01T05:21:23.059Z,0
2017-11-01T05:22:15.299Z,0
2017-11-01T05:23:07.716Z,0
2017-11-01T05:24:00.280Z,0
2017-11-01T05:24:52.822Z,0
2017-11-01T05:25:45.369Z,0
2017-11-01T05:26:38.761Z,0
2017-11-01T05:27:31.118Z,0
2017-11-01T05:28:23.341Z,0
2017-11-01T05:29:15.459Z,0
2017-11-01T05:30:07.750Z,0
2017-11-01T05:31:00.188Z,0
2017-11-01T05:31:53.205Z,0
2017-11-01T05:32:45.512Z,0
2017-11-01T05:33:38.267Z,0
2017-11-01T05:34:30.770Z,0
2017-11-01T05:35:23.796Z,0
2017-11-01T05:36:16.786Z,0
2017-11-01T05:37:10.108Z,0
2017-11-01T05:38:02.356Z,0
2017-11-01T05:38:55.151Z,0
2017-11-01T05:39:48.313Z,0
2017-11-01T05:40:41.277Z,0
2017-11-01T05:41:34.652Z,0
2017-11-01T05:42:27.086Z,0
2017-11-01T05:43:19.731Z,0
2017-11-01T05:44:13.433Z,0
2017-11-01T05:45:05.873Z,0
2017-11-01T05:45:58.398Z,0
2017-11-01T05:46:50.630Z,0
2017-11-01T05:47:44.719Z,0
2017-11-01T05:48:37.178Z,0
2017-11-01T05:49:29.731Z,0
2017-11-01T05:50:22.278Z,0
2017-11-01T05:51:14.853Z,0
2017-11-01T05:52:07.267Z,0
2017-11-01T05:53:00.369Z,0
2017-11-01T05:53:54.345Z,0
2017-11-01T05:54:47.887Z,0
2017-11-01T05:55:40.391Z,0
2017-11-01T05:56:33.418Z,0
2017-11-01T05:57:26.824Z,0
2017-11-01T05:58:19.217Z,0
2017-11-01T05:59:13.008Z,0
2017-11-01T06:00:05.310Z,0
2017-11-01T06:00:57.740Z,0
2017-11-01T06:01:52.030Z,0
2017-11-01T06:02:44.390Z,0
2017-11-01T06:03:36.541Z,0
2017-11-01T06:04:29.650Z,0
2017-11-01T06:05:23.294Z,0
2017-11-01T06:06:15.836Z,0
2017-11-01T06:07:08.875Z,0
2017-11-01T06:08:01.199Z,0
2017-11-01T06:08:53.995Z,4
2017-11-01T06:09:46.554Z,4
2017-11-01T06:10:39.199Z,0
2017-11-01T06:11:32.103Z,0
2017-11-01T06:12:24.824Z,4
2017-11-01T06:13:17.789Z,4
2017-11-01T06:14:09.805Z,4
2017-11-01T06:15:02.197Z,4
2017-11-01T06:15:54.567Z,4
2017-11-01T06:16:47.175Z,8
2017-11-01T06:17:39.582Z,4
2017-11-01T06:18:34.171Z,8
2017-11-01T06:19:26.756Z,8
2017-11-01T06:20:21.244Z,8
2017-11-01T06:21:14.102Z,8
2017-11-01T06:22:05.620Z,12
2017-11-01T06:22:58.183Z,8
2017-11-01T06:23:51.201Z,12
2017-11-01T06:24:43.073Z,12
2017-11-01T06:25:37.551Z,16
2017-11-01T06:26:29.920Z,16
2017-11-01T06:27:22.322Z,16
2017-11-01T06:28:14.490Z,20
2017-11-01T06:29:06.482Z,16
2017-11-01T06:29:58.398Z,20
2017-11-01T06:30:50.637Z,20
2017-11-01T06:31:43.680Z,24
2017-11-01T06:32:35.501Z,24
2017-11-01T06:33:28.120Z,28
2017-11-01T06:34:20.335Z,32
2017-11-01T06:35:14.194Z,32
2017-11-01T06:36:06.310Z,36
2017-11-01T06:36:59.102Z,32
2017-11-01T06:37:52.055Z,36
2017-11-01T06:38:44.337Z,36
2017-11-01T06:39:36.886Z,40
2017-11-01T06:40:29.076Z,44
2017-11-01T06:41:21.458Z,44
2017-11-01T06:42:13.259Z,48
2017-11-01T06:43:05.712Z,48
2017-11-01T06:43:57.823Z,52
2017-11-01T06:44:49.982Z,52
2017-11-01T06:45:42.679Z,56
2017-11-01T06:46:35.144Z,60
2017-11-01T06:47:27.631Z,64
2017-11-01T06:48:21.202Z,64
2017-11-01T06:49:02.404Z,68
2017-11-01T06:49:42.995Z,68
2017-11-01T06:50:23.481Z,72
2017-11-01T06:51:04.170Z,72
2017-11-01T06:51:44.571Z,72
2017-11-01T06:52:25.011Z,76
2017-11-01T06:53:05.428Z,80
2017-11-01T06:53:45.972Z,84
2017-11-01T06:54:26.361Z,88
2017-11-01T06:55:06.729Z,92
2017-11-01T06:55:47.298Z,96
2017-11-01T06:56:27.610Z,100
2017-11-01T06:57:08.042Z,104
2017-11-01T06:57:48.510Z,112
2017-11-01T06:58:28.967Z,116
2017-11-01T06:59:09.403Z,120
2017-11-01T06:59:49.939Z,120
2017-11-01T07:00:30.397Z,128
2017-11-01T07:01:10.836Z,128
2017-11-01T07:01:51.220Z,140
2017-11-01T07:02:31.657Z,140
2017-11-01T07:03:12.025Z,144
2017-11-01T07:03:52.468Z,148
2017-11-01T07:04:32.880Z,144
2017-11-01T07:05:13.236Z,148
2017-11-01T07:05:53.671Z,144
2017-11-01T07:06:34.056Z,144
2017-11-01T07:07:14.488Z,144
2017-11-01T07:07:55.005Z,156
2017-11-01T07:08:35.367Z,152
2017-11-01T07:09:15.910Z,160
2017-11-01T07:09:56.236Z,172
2017-11-01T07:10:36.616Z,184
2017-11-01T07:11:17.009Z,196
2017-11-01T07:11:57.536Z,196
2017-11-01T07:12:37.859Z,204
2017-11-01T07:13:18.402Z,212
2017-11-01T07:13:58.664Z,212
2017-11-01T07:14:39.104Z,216
2017-11-01T07:15:19.575Z,228
2017-11-01T07:15:59.933Z,236
2017-11-01T07:16:40.382Z,256
2017-11-01T07:17:20.826Z,248
2017-11-01T07:18:01.154Z,240
2017-11-01T07:18:41.632Z,252
2017-11-01T07:19:22.055Z,260
2017-11-01T07:20:02.409Z,260
2017-11-01T07:20:42.880Z,268
2017-11-01T07:21:23.423Z,288
2017-11-01T07:22:03.770Z,288
2017-11-01T07:22:44.199Z,288
2017-11-01T07:23:24.644Z,284
2017-11-01T07:24:05.212Z,288
2017-11-01T07:24:45.550Z,288
2017-11-01T07:25:25.962Z,260
2017-11-01T07:26:06.307Z,264
2017-11-01T07:26:46.768Z,260
2017-11-01T07:27:27.184Z,264
2017-11-01T07:28:07.586Z,328
2017-11-01T07:28:47.966Z,312
2017-11-01T07:29:28.430Z,576
2017-11-01T07:30:08.819Z,612
2017-11-01T07:30:49.153Z,776
2017-11-01T07:31:29.587Z,820
2017-11-01T07:32:10.251Z,716
2017-11-01T07:32:51.002Z,640
2017-11-01T07:33:31.313Z,636
2017-11-01T07:34:11.825Z,788
2017-11-01T07:34:52.206Z,960
2017-11-01T07:35:32.584Z,1044
2017-11-01T07:36:13.101Z,1108
2017-11-01T07:36:53.476Z,868
2017-11-01T07:37:33.927Z,1136
2017-11-01T07:38:14.371Z,1288
2017-11-01T07:38:54.799Z,1460
2017-11-01T07:39:35.569Z,1520
2017-11-01T07:40:15.959Z,1456
2017-11-01T07:40:56.364Z,1428
2017-11-01T07:41:36.709Z,1552
2017-11-01T07:42:17.111Z,1588
2017-11-01T07:42:57.604Z,1496
2017-11-01T07:43:38.000Z,1308
2017-11-01T07:44:18.459Z,1168
2017-11-01T07:44:58.888Z,1012
2017-11-01T07:45:39.264Z,992
2017-11-01T07:46:19.669Z,1152
2017-11-01T07:47:00.023Z,1144
2017-11-01T07:47:40.499Z,1180
2017-11-01T07:48:21.110Z,1140
2017-11-01T07:49:01.572Z,1064
2017-11-01T07:49:41.899Z,940
2017-11-01T07:50:22.418Z,840
2017-11-01T07:51:02.804Z,820
2017-11-01T07:51:43.262Z,860
2017-11-01T07:52:23.834Z,972
2017-11-01T07:53:04.171Z,1108
2017-11-01T07:53:44.630Z,1120
2017-11-01T07:54:25.138Z,1140
2017-11-01T07:55:05.436Z,1092
2017-11-01T07:55:45.848Z,1088
2017-11-01T07:56:35.416Z,1156
2017-11-01T07:57:17.188Z,1352
2017-11-01T07:57:57.596Z,1456
2017-11-01T07:58:37.972Z,1504
2017-11-01T07:59:18.488Z,1596
2017-11-01T07:59:58.880Z,1564
2017-11-01T08:00:39.347Z,1460
2017-11-01T08:01:19.796Z,1260
2017-11-01T08:02:00.303Z,1128
2017-11-01T08:02:40.933Z,1028
2017-11-01T08:03:21.095Z,1008
2017-11-01T08:04:01.700Z,1084
2017-11-01T08:04:42.131Z,1184
2017-11-01T08:05:22.494Z,1272
2017-11-01T08:06:02.918Z,1344
2017-11-01T08:06:43.291Z,1304
2017-11-01T08:07:23.767Z,1328
2017-11-01T08:08:04.184Z,1408
2017-11-01T08:08:45.196Z,1328
2017-11-01T08:09:25.633Z,1208
2017-11-01T08:10:05.993Z,1196
2017-11-01T08:10:47.170Z,1184
2017-11-01T08:11:27.623Z,1188
2017-11-01T08:12:07.971Z,1232
2017-11-01T08:12:48.417Z,1396
2017-11-01T08:13:28.830Z,1320
2017-11-01T08:14:09.230Z,1240
2017-11-01T08:14:49.630Z,1212
2017-11-01T08:17:20.364Z,1280
2017-11-01T08:18:00.942Z,1404
2017-11-01T08:18:41.322Z,1416
2017-11-01T08:19:21.664Z,1412
2017-11-01T08:20:02.527Z,1424
2017-11-01T08:20:42.868Z,1436
2017-11-01T08:21:23.410Z,1452
2017-11-01T08:22:03.863Z,1456
2017-11-01T08:22:44.367Z,1464
2017-11-01T08:23:24.796Z,1520
2017-11-01T08:24:05.210Z,1512
2017-11-01T08:24:45.692Z,1480
2017-11-01T08:25:26.212Z,1492
2017-11-01T08:26:06.708Z,1528
2017-11-01T08:26:47.093Z,1532
2017-11-01T08:27:27.517Z,1536
2017-11-01T08:28:07.997Z,1548
2017-11-01T08:28:48.397Z,1572
2017-11-01T08:29:28.874Z,1564
2017-11-01T08:30:09.246Z,1568
2017-11-01T08:30:49.740Z,1576
2017-11-01T08:31:30.679Z,1596
2017-11-01T08:32:11.208Z,1628
2017-11-01T08:32:51.636Z,1640
2017-11-01T08:33:32.151Z,1652
2017-11-01T08:34:12.615Z,1652
2017-11-01T08:34:53.041Z,1664
2017-11-01T08:35:33.426Z,1680
2017-11-01T08:36:13.890Z,1652
2017-11-01T08:38:43.456Z,1424
2017-11-01T08:39:36.713Z,1396
2017-11-01T08:40:31.160Z,1384
2017-11-01T08:41:24.828Z,1408
2017-11-01T08:42:19.016Z,1480
2017-11-01T08:43:11.543Z,1560
2017-11-01T08:44:03.538Z,1624
2017-11-01T08:44:56.977Z,1692
2017-11-01T08:45:48.765Z,1788
2017-11-01T08:46:43.270Z,1840
2017-11-01T08:47:38.023Z,1936
2017-11-01T08:48:30.630Z,1872
2017-11-01T08:49:25.253Z,1816
2017-11-01T08:50:18.115Z,1768
2017-11-01T08:51:10.418Z,1768
2017-11-01T08:52:03.682Z,1748
2017-11-01T08:52:56.500Z,1748
2017-11-01T08:53:50.529Z,1736
2017-11-01T08:54:42.888Z,1664
2017-11-01T08:55:34.891Z,1644
2017-11-01T08:56:28.242Z,1596
2017-11-01T08:57:21.619Z,1644
2017-11-01T08:58:14.787Z,1648
2017-11-01T08:59:07.514Z,1612
2017-11-01T08:59:53.740Z,1624
2017-11-01T09:00:34.163Z,1692
2017-11-01T09:01:14.631Z,1708
2017-11-01T09:01:55.107Z,1708
2017-11-01T09:02:35.512Z,1684
2017-11-01T09:03:16.076Z,1712
2017-11-01T09:03:56.517Z,1692
2017-11-01T09:04:37.021Z,1712
2017-11-01T09:05:17.320Z,1712
2017-11-01T09:05:57.787Z,1708
2017-11-01T09:06:38.315Z,1708
2017-11-01T09:07:18.847Z,1704
2017-11-01T09:07:59.353Z,1696
2017-11-01T09:08:39.852Z,1688
2017-11-01T09:09:20.170Z,1688
2017-11-01T09:10:00.598Z,1684
2017-11-01T09:10:41.025Z,1676
2017-11-01T09:11:21.563Z,1672
2017-11-01T09:12:01.960Z,1668
2017-11-01T09:12:42.397Z,1664
2017-11-01T09:13:22.753Z,1656
2017-11-01T09:14:03.288Z,1644
2017-11-01T09:14:43.720Z,1628
2017-11-01T09:15:24.147Z,1628
2017-11-01T09:16:04.521Z,1636
2017-11-01T09:16:44.926Z,1628
2017-11-01T09:17:25.406Z,1608
2017-11-01T09:18:05.837Z,1628
2017-11-01T09:18:46.436Z,1632
2017-11-01T09:19:26.967Z,1628
2017-11-01T09:20:07.503Z,1620
2017-11-01T09:20:48.842Z,1608
2017-11-01T09:21:29.356Z,1596
2017-11-01T09:22:09.902Z,1592
2017-11-01T09:22:50.391Z,1584
2017-11-01T09:23:30.898Z,1584
2017-11-01T09:24:11.418Z,1564
2017-11-01T09:24:51.888Z,1576
2017-11-01T09:25:32.341Z,1576
2017-11-01T09:26:12.790Z,1564
2017-11-01T09:26:53.393Z,1556
2017-11-01T09:27:33.826Z,1552
2017-11-01T09:28:14.202Z,1548
2017-11-01T09:28:54.652Z,1544
2017-11-01T09:29:35.078Z,1536
2017-11-01T09:30:15.663Z,1536
2017-11-01T09:30:56.140Z,1536
2017-11-01T09:31:36.636Z,1528
2017-11-01T09:32:17.046Z,1536
2017-11-01T09:32:57.478Z,1528
2017-11-01T09:33:37.861Z,1528
2017-11-01T09:34:18.379Z,1524
2017-11-01T09:34:58.738Z,1516
2017-11-01T09:35:39.164Z,1508
2017-11-01T09:36:19.547Z,1520
2017-11-01T09:37:00.006Z,1516
2017-11-01T09:37:40.509Z,1512
2017-11-01T09:38:20.986Z,1512
2017-11-01T09:39:01.452Z,1496
2017-11-01T09:39:41.864Z,1476
2017-11-01T09:40:24.609Z,1464
2017-11-01T09:41:06.044Z,1444
2017-11-01T09:41:46.637Z,1448
2017-11-01T09:42:27.518Z,1444
2017-11-01T09:43:07.849Z,1444
2017-11-01T09:43:48.756Z,1460
2017-11-01T09:44:29.123Z,1464
2017-11-01T09:45:09.647Z,1456
2017-11-01T09:45:50.008Z,1460
2017-11-01T09:46:31.312Z,1460
2017-11-01T09:48:41.455Z,1460
2017-11-01T09:49:34.694Z,1460
2017-11-01T09:50:28.607Z,1460
2017-11-01T09:51:21.332Z,1460
2017-11-01T09:53:42.746Z,1444
2017-11-01T09:54:36.742Z,1436
2017-11-01T09:55:29.589Z,1424
2017-11-01T09:56:22.952Z,1428
2017-11-01T09:57:16.367Z,1408
2017-11-01T09:58:09.059Z,1424
2017-11-01T09:59:02.191Z,1432
2017-11-01T09:59:55.188Z,1424
2017-11-01T10:00:47.758Z,1420
2017-11-01T10:01:40.673Z,1416
2017-11-01T10:02:34.694Z,1412
2017-11-01T10:41:30.120Z,1344
2017-11-01T10:42:23.294Z,1352
2017-11-01T10:43:15.800Z,1380
2017-11-01T10:44:08.904Z,1320
2017-11-01T10:45:03.065Z,1312
2017-11-01T10:45:56.042Z,1260
2017-11-01T10:46:48.981Z,1260
2017-11-01T10:47:42.771Z,1396
2017-11-01T10:48:35.542Z,1424
2017-11-01T10:49:27.812Z,1440
2017-11-01T10:50:20.992Z,1444
2017-11-01T10:51:14.638Z,1440
2017-11-01T10:52:08.212Z,1440
2017-11-01T10:53:02.388Z,1448
2017-11-01T10:53:56.835Z,1448
2017-11-01T10:54:56.840Z,1464
2017-11-01T10:55:49.117Z,1480
2017-11-01T10:56:42.412Z,1488
2017-11-01T10:57:35.242Z,1472
2017-11-01T10:58:28.029Z,1492
2017-11-01T10:59:21.706Z,1452
2017-11-01T11:00:15.102Z,1408
2017-11-01T11:01:07.085Z,1424
2017-11-01T11:02:01.115Z,1440
2017-11-01T11:02:55.499Z,1420
2017-11-01T11:03:48.338Z,1416
2017-11-01T11:04:41.552Z,1440
2017-11-01T11:05:34.596Z,1404
2017-11-01T11:06:28.735Z,1396
2017-11-01T11:07:28.980Z,1420
2017-11-01T11:08:24.062Z,1420
2017-11-01T11:09:18.209Z,1408
2017-11-01T11:10:11.056Z,1392
2017-11-01T11:11:04.189Z,1364
2017-11-01T11:12:00.960Z,1368
2017-11-01T11:12:56.315Z,1376
2017-11-01T11:13:49.432Z,1356
2017-11-01T11:14:46.519Z,1368
2017-11-01T11:15:43.279Z,1264
2017-11-01T11:16:43.634Z,1284
2017-11-01T11:17:40.743Z,1264
2017-11-01T11:18:33.757Z,1276
2017-11-01T11:19:26.326Z,1232
2017-11-01T11:20:14.171Z,1156
2017-11-01T11:20:54.385Z,972
2017-11-01T11:21:34.736Z,1000
2017-11-01T11:22:15.118Z,952
2017-11-01T11:22:55.673Z,932
2017-11-01T11:23:36.255Z,1020
2017-11-01T11:24:16.762Z,1080
2017-11-01T11:24:57.170Z,1080
2017-11-01T11:25:37.618Z,1220
2017-11-01T11:26:18.075Z,1264
2017-11-01T11:26:58.486Z,1280
2017-11-01T11:27:40.316Z,1280
2017-11-01T11:28:20.668Z,1288
2017-11-01T11:29:01.171Z,1288
2017-11-01T11:29:41.544Z,1288
2017-11-01T11:30:22.066Z,1280
2017-11-01T11:31:02.463Z,1288
2017-11-01T11:31:43.477Z,1288
2017-11-01T11:32:23.824Z,1284
2017-11-01T11:33:04.271Z,1280
2017-11-01T11:33:44.686Z,1268
2017-11-01T11:34:25.093Z,1260
2017-11-01T11:35:05.523Z,1220
2017-11-01T11:35:45.870Z,1216
2017-11-01T11:36:26.258Z,1256
2017-11-01T11:37:06.793Z,1256
2017-11-01T11:37:47.156Z,1228
2017-11-01T11:38:27.576Z,1184
2017-11-01T11:39:08.186Z,1212
2017-11-01T11:39:48.611Z,1252
2017-11-01T11:40:28.935Z,1256
2017-11-01T11:41:09.556Z,1248
2017-11-01T11:41:49.924Z,1248
2017-11-01T11:42:30.554Z,1244
2017-11-01T11:43:11.312Z,1244
2017-11-01T11:43:51.886Z,1244
2017-11-01T11:44:32.342Z,1240
2017-11-01T11:45:12.877Z,1236
2017-11-01T11:45:53.269Z,1232
2017-11-01T11:46:33.744Z,1224
2017-11-01T11:47:14.123Z,1224
2017-11-01T11:47:54.564Z,1220
2017-11-01T11:48:35.037Z,1216
2017-11-01T11:49:15.455Z,1212
2017-11-01T11:49:56.087Z,1212
2017-11-01T11:50:36.549Z,1212
2017-11-01T11:51:17.348Z,1204
2017-11-01T11:51:57.973Z,1204
2017-11-01T11:52:38.478Z,1200
2017-11-01T11:53:18.978Z,1200
2017-11-01T11:53:59.325Z,1196
2017-11-01T11:54:39.867Z,1196
2017-11-01T11:55:20.376Z,1192
2017-11-01T11:56:00.759Z,1192
2017-11-01T11:56:41.251Z,1188
2017-11-01T11:57:21.691Z,1184
2017-11-01T11:58:02.026Z,1184
2017-11-01T11:58:42.529Z,1180
2017-11-01T11:59:23.000Z,1176
2017-11-01T12:00:03.504Z,1176
2017-11-01T12:00:44.494Z,1172
2017-11-01T12:01:24.662Z,1172
2017-11-01T12:02:05.103Z,1172
2017-11-01T12:02:45.590Z,1168
2017-11-01T12:03:25.907Z,1168
2017-11-01T12:04:06.305Z,1164
2017-11-01T12:04:46.884Z,1164
2017-11-01T12:05:27.334Z,1164
2017-11-01T12:06:07.886Z,1160
2017-11-01T12:06:48.454Z,1160
2017-11-01T12:07:28.831Z,1160
2017-11-01T12:08:09.307Z,1160